Frost, TX (76641)

3:04 PM CDT on September 20, 2014 (GMT -0500)
Road / Bridge 3 Ellis County TX | Change Station
CLOSE
Current Station
Personal Weather Station
Location: Italy, TX
Elevation: 545 ft
Nearby Weather Stations

Elev 545 ft 32.17 °N, 96.87 °W | Updated 0 second ago

Partly Cloudy
Partly Cloudy
89.4 °F
Feels Like 90 °F
N
4.9
Wind Variable Wind from SE
Gusts 10.0 mph

Today
High -- | Low -- °F
--% Chance of Precip.
Yesterday
High -- | Low -- °F
Precip. -- in
7:14 AM 7:26 PM
Waning Crescent, 10% visible
Pressure 29.97 in
Visibility 10.0 miles
Clouds Scattered Clouds 4400 ft
Mostly Cloudy 6000 ft
Heat Index 90 °F
Dew Point 63 °F
Humidity 42%
Rainfall 0.00 in
Snow Depth Not available.
UV 4 out of 12
Pollen 10.00 out of 12
Air Quality Not available.
Flu Activity Not available.
METAR KINJ 201955Z AUTO 18006KT 10SM SCT044 BKN060 32/19 A2997 RMK AO2 T03150185

More Conditions Fewer Conditions

Pressure 29.97 in
Visibility 10.0 miles
Clouds Scattered Clouds 4400 ft
Mostly Cloudy 6000 ft
Heat Index 90 °F
Dew Point 63 °F
Humidity 42%
Rainfall 0.00 in
Snow Depth Not available.
UV 4 out of 12
Pollen 10.00 out of 12
Air Quality Not available.
Flu Activity Not available.
METAR KINJ 201955Z AUTO 18006KT 10SM SCT044 BKN060 32/19 A2997 RMK AO2 T03150185

More Conditions Fewer Conditions

Nowcast | as of 3:01 PM CDT on September 20, 2014

Scattered showers are ongoing across much of North Texas this afternoon. This activity is moving slowly to the northwest at 5 to 10 mph. Additional showers and isolated storms will be possible through the rest of the afternoon and early evening...primarily along and west of the Interstate 35 corridor. Skies will remain mostly cloudy west of Interstate 35 and partly cloudy to the east through the afternoon. High temperatures will be in the upper 80s and low 90s in areas unaffected by rainfall. Winds will be southeast at 5 to 10 mph.

×

10-Day Weather Forecast

Almanac

Astronomy

Sep. 20, 2014 Rise Set
Actual Time 7:14 AM CDT 7:26 PM CDT
Civil Twilight 6:49 AM CDT 7:50 PM CDT
Nautical Twilight 6:21 AM CDT 8:19 PM CDT
Astronomical Twilight 5:52 AM CDT 8:48 PM CDT
Moon 4:03 AM CDT 5:22 PM CDT
Length of Visible Light 13h 01m
Length of Day
12h 12m
Tomorrow will be 1m 58s shorter.
Waning Crescent, 10% of the Moon is Illuminated
Today
Waning Crescent
Sep 24
New
Oct 1
First Quarter
Oct 8
Full
Oct 15
Last Quarter

Today's Extremes

State Highs State Lows

Community

WunderPhotos

Upload Photos

1,754,927 photos uploaded!

WunderBlogs® & News

Nearby

Snow Depth

Station Depth Elevation
No new snow has been reported.

Earthquake Activity

City Distance Mag. Time & Date
No recent earthquake activity has been reported nearby.
Minimum magnitude displayed is 2.5.

Coastal Water Temperatures

Place Temperature
No Stations Reporting

Nearby Weather Stations